createdAt,value
2023-04-27T00:04:12.802Z,974.3
2023-04-27T00:09:43.590Z,974.31
2023-04-27T00:15:15.427Z,974.29
2023-04-27T00:20:47.177Z,974.29
2023-04-27T00:26:18.855Z,974.27
2023-04-27T00:31:50.908Z,974.21
2023-04-27T00:37:22.560Z,974.07
2023-04-27T00:42:54.201Z,973.97
2023-04-27T00:48:26.120Z,973.96
2023-04-27T00:53:57.574Z,973.98
2023-04-27T00:59:29.954Z,973.95
2023-04-27T01:05:06.254Z,974.07
2023-04-27T01:10:56.249Z,974.06
2023-04-27T01:16:09.196Z,974.07
2023-04-27T01:21:40.879Z,974.05
2023-04-27T01:27:13.072Z,973.97
2023-04-27T01:32:44.116Z,973.96
2023-04-27T01:38:15.750Z,973.88
2023-04-27T01:43:47.491Z,973.76
2023-04-27T01:49:19.525Z,973.82
2023-04-27T01:54:51.163Z,973.95
2023-04-27T02:00:22.685Z,974.06
2023-04-27T02:06:01.387Z,974.19
2023-04-27T02:11:32.693Z,974.15
2023-04-27T02:17:04.206Z,974.16
2023-04-27T02:22:36.708Z,974.19
2023-04-27T02:28:08.669Z,974.37
2023-04-27T02:33:39.909Z,974.47
2023-04-27T02:39:11.151Z,974.46
2023-04-27T02:44:42.785Z,974.55
2023-04-27T02:50:15.525Z,974.55
2023-04-27T02:55:46.323Z,974.67
2023-04-27T03:01:18.672Z,974.78
2023-04-27T03:06:56.111Z,974.75
2023-04-27T03:12:28.016Z,974.78
2023-04-27T03:17:59.832Z,974.82
2023-04-27T03:23:32.324Z,974.85
2023-04-27T03:29:03.289Z,974.89
2023-04-27T03:34:34.982Z,974.82
2023-04-27T03:40:06.467Z,974.92
2023-04-27T03:45:38.425Z,974.99
2023-04-27T03:51:09.849Z,975.12
2023-04-27T03:56:41.483Z,975.13
2023-04-27T04:02:14.759Z,975.12
2023-04-27T04:07:49.361Z,975.15
2023-04-27T04:13:21.720Z,975.19
2023-04-27T04:18:53.112Z,975.16
2023-04-27T04:24:25.134Z,975.27
2023-04-27T04:29:56.389Z,975.44
2023-04-27T04:35:28.097Z,975.47
2023-04-27T04:40:59.749Z,975.56
2023-04-27T04:46:31.923Z,975.63
2023-04-27T04:52:03.405Z,975.69
2023-04-27T04:57:35.628Z,975.81
2023-04-27T05:03:07.337Z,975.84
2023-04-27T05:08:44.864Z,976.02
2023-04-27T05:14:16.910Z,976.05
2023-04-27T05:19:48.342Z,975.99
2023-04-27T05:25:20.157Z,976.13
2023-04-27T05:30:52.196Z,976.04
2023-04-27T05:36:23.468Z,976.5
2023-04-27T05:41:55.795Z,976.21
2023-04-27T05:47:27.338Z,976.7
2023-04-27T05:52:58.835Z,976.78
2023-04-27T05:58:30.798Z,976.8
2023-04-27T06:04:04.847Z,977.55
2023-04-27T06:09:38.500Z,977.82
2023-04-27T06:15:10.311Z,977.67
2023-04-27T06:20:41.688Z,977.49
2023-04-27T06:26:13.284Z,978.27
2023-04-27T06:31:45.293Z,978.49
2023-04-27T06:37:17.090Z,978.58
2023-04-27T06:42:48.482Z,978.49
2023-04-27T06:48:20.523Z,978.54
2023-04-27T06:53:51.980Z,979.08
2023-04-27T06:59:23.647Z,979.39
2023-04-27T07:04:55.792Z,979.86
2023-04-27T07:10:33.558Z,979.62
2023-04-27T07:16:05.596Z,979.51
2023-04-27T07:21:37.362Z,980.12
2023-04-27T07:27:09.258Z,979.48
2023-04-27T07:32:40.731Z,980.42
2023-04-27T07:38:13.015Z,981.52
2023-04-27T07:43:44.160Z,982.05
2023-04-27T07:49:16.433Z,981.34
2023-04-27T07:54:47.423Z,982.24
2023-04-27T08:00:19.721Z,980.73
2023-04-27T08:05:52.633Z,981.5
2023-04-27T08:11:27.399Z,980.77
2023-04-27T08:16:59.581Z,981.56
2023-04-27T08:22:30.483Z,981.33
2023-04-27T08:28:02.451Z,980.9
2023-04-27T08:33:33.735Z,981.57
2023-04-27T08:39:05.521Z,980.92
2023-04-27T08:44:37.376Z,982.17
2023-04-27T08:50:09.347Z,982.3
2023-04-27T08:55:40.958Z,981.31
2023-04-27T09:01:12.673Z,982.64
2023-04-27T09:06:44.151Z,982.22
2023-04-27T09:12:20.388Z,982.07
2023-04-27T09:17:52.166Z,980.43
2023-04-27T09:23:23.600Z,981.2
2023-04-27T09:28:55.589Z,981.47
2023-04-27T09:34:27.355Z,981.46
2023-04-27T09:39:58.907Z,981.02
2023-04-27T09:45:32.368Z,981.28
2023-04-27T09:51:02.469Z,981.68
2023-04-27T09:56:34.164Z,981.81
2023-04-27T10:02:25.570Z,982.43
2023-04-27T10:07:38.109Z,982.44
2023-04-27T10:13:15.852Z,982.43
2023-04-27T10:18:47.752Z,982.3
2023-04-27T10:24:19.273Z,981.98
2023-04-27T10:29:51.672Z,981.72
2023-04-27T10:35:22.975Z,982.52
2023-04-27T10:40:55.611Z,982.46
2023-04-27T10:46:26.850Z,982.83
2023-04-27T10:51:58.165Z,981.83
2023-04-27T10:57:29.748Z,982.06
2023-04-27T11:03:01.666Z,981.37
2023-04-27T11:08:33.469Z,980.65
2023-04-27T11:14:10.069Z,980.83
2023-04-27T11:19:41.145Z,981.64
2023-04-27T11:25:12.976Z,981.72
2023-04-27T11:30:44.899Z,981.16
2023-04-27T11:36:16.478Z,981.28
2023-04-27T11:41:48.162Z,981.92
2023-04-27T11:47:19.987Z,981.37
2023-04-27T11:52:51.540Z,981.15
2023-04-27T11:58:23.586Z,979.63
2023-04-27T12:03:56.129Z,980.96
2023-04-27T12:09:26.962Z,981.32
2023-04-27T12:15:03.107Z,980.25
2023-04-27T12:20:34.760Z,980.87
2023-04-27T12:26:07.398Z,981.65
2023-04-27T12:31:38.866Z,981.51
2023-04-27T12:37:09.818Z,980.52
2023-04-27T12:42:41.830Z,980.72
2023-04-27T12:48:16.894Z,980.07
2023-04-27T12:53:45.251Z,980.55
2023-04-27T12:59:17.016Z,980.39
2023-04-27T13:04:49.064Z,979.45
2023-04-27T13:10:20.254Z,980.67
2023-04-27T13:15:58.622Z,980.63
2023-04-27T13:21:30.271Z,979.52
2023-04-27T13:27:01.530Z,980.31
2023-04-27T13:32:33.676Z,979.5
2023-04-27T13:38:05.157Z,978.9
2023-04-27T13:43:36.850Z,979.18
2023-04-27T13:49:08.794Z,978.66
2023-04-27T13:54:40.270Z,979.67
2023-04-27T14:00:12.214Z,980.1
2023-04-27T14:05:44.001Z,980.29
2023-04-27T14:11:16.122Z,979.66
2023-04-27T14:16:54.049Z,979.23
2023-04-27T14:22:25.215Z,978.39
2023-04-27T14:27:57.116Z,978.54
2023-04-27T14:33:28.673Z,979.05
2023-04-27T14:39:00.788Z,978.63
2023-04-27T14:44:32.704Z,977.61
2023-04-27T14:50:04.239Z,978.83
2023-04-27T14:55:35.763Z,978.78
2023-04-27T15:01:08.173Z,978.38
2023-04-27T15:06:39.318Z,978.38
2023-04-27T15:12:11.822Z,977.76
2023-04-27T15:17:47.149Z,978.42
2023-04-27T15:23:18.932Z,978.1
2023-04-27T15:28:50.511Z,978.26
2023-04-27T15:34:22.124Z,978.27
2023-04-27T15:39:54.313Z,977.52
2023-04-27T15:45:25.591Z,977.45
2023-04-27T15:50:57.336Z,977.99
2023-04-27T15:56:31.779Z,977.9
2023-04-27T16:02:00.936Z,977.5
2023-04-27T16:07:32.460Z,977.44
2023-04-27T16:13:04.517Z,976.86
2023-04-27T16:18:40.366Z,976.55
2023-04-27T16:24:12.352Z,976.64
2023-04-27T16:29:44.070Z,977.12
2023-04-27T16:35:16.062Z,976.38
2023-04-27T16:40:47.547Z,976.17
2023-04-27T16:46:19.266Z,976.18
2023-04-27T16:51:50.739Z,975.76
2023-04-27T16:57:22.622Z,975.95
2023-04-27T17:02:54.434Z,975.66
2023-04-27T17:08:25.807Z,975.84
2023-04-27T17:13:57.677Z,975.84
2023-04-27T17:19:35.903Z,975.06
2023-04-27T17:25:07.811Z,975.17
2023-04-27T17:30:39.280Z,975.05
2023-04-27T17:36:10.947Z,974.69
2023-04-27T17:41:42.641Z,974.46
2023-04-27T17:47:14.578Z,974.36
2023-04-27T17:52:46.272Z,974.22
2023-04-27T17:58:18.352Z,974.0
2023-04-27T18:03:50.497Z,973.79
2023-04-27T18:09:21.423Z,973.57
2023-04-27T18:14:53.369Z,973.5
2023-04-27T18:20:29.324Z,973.39
2023-04-27T18:26:01.341Z,973.49
2023-04-27T18:31:32.835Z,973.23
2023-04-27T18:37:04.587Z,973.13
2023-04-27T18:42:36.120Z,972.84
2023-04-27T18:48:07.780Z,972.59
2023-04-27T18:53:40.086Z,972.48
2023-04-27T18:59:11.538Z,972.56
2023-04-27T19:05:12.030Z,972.34
2023-04-27T19:10:15.569Z,972.51
2023-04-27T19:15:46.318Z,972.4
2023-04-27T19:21:22.372Z,972.37
2023-04-27T19:26:54.149Z,972.2
2023-04-27T19:32:26.172Z,972.12
2023-04-27T19:37:57.623Z,972.01
2023-04-27T19:43:29.744Z,971.55
2023-04-27T19:49:01.650Z,971.74
2023-04-27T19:54:32.792Z,971.72
2023-04-27T20:00:04.935Z,972.13
2023-04-27T20:05:37.187Z,972.12
2023-04-27T20:11:07.948Z,972.09
2023-04-27T20:16:40.465Z,972.05
2023-04-27T20:22:15.832Z,971.81
2023-04-27T20:27:47.855Z,971.83
2023-04-27T20:33:19.452Z,971.91
2023-04-27T20:38:51.379Z,971.83
2023-04-27T20:44:23.097Z,971.5
2023-04-27T20:49:54.629Z,971.78
2023-04-27T20:55:26.195Z,971.87
2023-04-27T21:00:58.134Z,971.6
2023-04-27T21:06:29.849Z,971.39
2023-04-27T21:12:01.428Z,971.64
2023-04-27T21:17:33.905Z,971.76
2023-04-27T21:23:09.173Z,971.71
2023-04-27T21:28:40.846Z,971.59
2023-04-27T21:34:13.186Z,971.47
2023-04-27T21:39:44.348Z,971.13
2023-04-27T21:45:16.097Z,971.34
2023-04-27T21:50:47.994Z,971.15
2023-04-27T21:56:19.705Z,971.23
2023-04-27T22:01:51.585Z,971.09
2023-04-27T22:07:22.928Z,971.12
2023-04-27T22:12:58.436Z,971.01
2023-04-27T22:18:26.460Z,970.88
2023-04-27T22:24:04.937Z,971.01
2023-04-27T22:29:36.565Z,970.96
2023-04-27T22:35:27.765Z,970.86
2023-04-27T22:40:39.728Z,970.92
2023-04-27T22:46:11.567Z,970.98
2023-04-27T22:51:43.429Z,970.97
2023-04-27T22:57:15.362Z,971.39
2023-04-27T23:02:46.988Z,971.7
2023-04-27T23:08:19.496Z,971.58
2023-04-27T23:13:50.446Z,971.55
2023-04-27T23:19:22.272Z,971.66
2023-04-27T23:24:57.910Z,971.59
2023-04-27T23:30:29.746Z,971.67
2023-04-27T23:36:01.688Z,971.6
2023-04-27T23:41:33.476Z,971.5
2023-04-27T23:47:05.230Z,971.17
2023-04-27T23:52:38.139Z,971.42
2023-04-27T23:58:08.379Z,971.26
